Time;durP1;ratioP1;P1;durP2;ratioP2;P2;SDS_P1;SDS_P2;PMS_P1;PMS_P2;Temp;Humidity;BMP_temperature;BMP_pressure;BME280_temperature;BME280_humidity;BME280_pressure;Samples;Min_cycle;Max_cycle;Signal;HPM_P1;HPM_P2
2023/07/09 00:02:12;;;;;;;4.68;3.03;;;;;;;28.87;48.73;99500.78;5045736;28;20470;-75
2023/07/09 00:04:37;;;;;;;5.82;3.45;;;;;;;28.90;48.50;99493.28;5051365;28;20051;-74
2023/07/09 00:07:04;;;;;;;6.45;4.00;;;;;;;28.85;48.70;99486.66;5051086;28;20028;-76
2023/07/09 00:09:30;;;;;;;6.55;3.17;;;;;;;28.88;48.90;99494.44;5052307;28;20117;-75
2023/07/09 00:11:56;;;;;;;5.32;3.15;;;;;;;28.91;48.72;99492.28;5054226;28;20111;-74
2023/07/09 00:14:21;;;;;;;6.18;3.45;;;;;;;28.94;48.83;99492.03;5054039;28;20124;-77
2023/07/09 00:16:50;;;;;;;5.07;3.30;;;;;;;28.94;49.01;99497.41;5054186;28;20036;-74
2023/07/09 00:19:19;;;;;;;5.38;3.20;;;;;;;28.97;48.91;99495.41;5054099;28;20021;-75
2023/07/09 00:21:46;;;;;;;6.78;3.40;;;;;;;28.98;48.92;99497.09;5053056;28;20143;-75
2023/07/09 00:24:12;;;;;;;7.10;3.45;;;;;;;28.98;48.85;99486.34;5053952;28;20021;-75
2023/07/09 00:26:40;;;;;;;4.60;3.10;;;;;;;28.99;49.01;99501.50;5053731;28;20040;-76
2023/07/09 00:29:09;;;;;;;6.43;3.40;;;;;;;28.99;48.94;99493.44;5054088;28;20017;-75
2023/07/09 00:31:34;;;;;;;4.72;3.42;;;;;;;28.98;49.01;99497.09;5053881;28;20036;-73
2023/07/09 00:34:00;;;;;;;4.75;3.13;;;;;;;28.96;49.10;99482.97;5053973;28;20017;-74
2023/07/09 00:36:31;;;;;;;6.40;3.63;;;;;;;28.94;49.41;99481.28;5053665;28;20381;-75
2023/07/09 00:38:59;;;;;;;5.22;3.33;;;;;;;28.96;49.17;99493.72;5053548;28;20073;-75
2023/07/09 00:41:25;;;;;;;7.50;3.60;;;;;;;28.97;48.87;99484.66;5053823;28;20041;-75
2023/07/09 00:43:52;;;;;;;5.72;3.70;;;;;;;28.97;49.30;99495.41;5053587;28;20477;-73
2023/07/09 00:46:20;;;;;;;5.50;3.60;;;;;;;28.97;49.04;99490.88;5053668;28;20032;-75
2023/07/09 00:48:50;;;;;;;5.13;3.47;;;;;;;28.97;48.91;99500.75;5053736;28;20037;-75
2023/07/09 00:51:20;;;;;;;6.40;3.55;;;;;;;28.96;49.14;99488.34;5048513;28;20029;-75
2023/07/09 00:53:49;;;;;;;5.07;3.58;;;;;;;28.96;49.10;99480.28;5049578;28;20028;-77
2023/07/09 00:56:25;;;;;;;6.45;3.97;;;;;;;28.94;49.16;99481.28;5052762;28;20028;-75
2023/07/09 00:58:52;;;;;;;5.55;3.25;;;;;;;28.96;48.99;99482.97;5052889;28;20043;-75
2023/07/09 01:01:21;;;;;;;5.20;3.33;;;;;;;28.94;49.12;99475.91;5046271;28;20021;-75
2023/07/09 01:03:56;;;;;;;4.63;2.95;;;;;;;28.94;49.39;99478.59;5046616;28;20055;-76
2023/07/09 01:06:32;;;;;;;7.03;3.53;;;;;;;28.93;49.18;99474.22;5050568;28;20070;-75
2023/07/09 01:09:00;;;;;;;5.43;3.22;;;;;;;28.94;49.45;99467.84;5047441;28;20029;-75
2023/07/09 01:11:27;;;;;;;6.05;3.65;;;;;;;28.88;49.20;99471.13;5052612;28;20025;-75
2023/07/09 01:13:57;;;;;;;6.40;3.72;;;;;;;28.91;49.10;99460.06;5053264;28;20611;-76
2023/07/09 01:16:27;;;;;;;6.88;3.40;;;;;;;28.89;49.21;99456.69;5053005;28;20013;-74
2023/07/09 01:18:53;;;;;;;5.68;3.38;;;;;;;28.88;49.37;99449.63;5048751;28;20032;-74
2023/07/09 01:21:19;;;;;;;6.25;3.50;;;;;;;28.88;49.28;99452.31;5050036;28;20024;-75
2023/07/09 01:23:46;;;;;;;6.68;3.75;;;;;;;28.88;49.50;99444.25;5048007;28;20021;-75
2023/07/09 01:26:14;;;;;;;6.18;4.00;;;;;;;28.87;49.00;99458.69;5059184;28;20421;-74
2023/07/09 01:28:43;;;;;;;6.15;3.70;;;;;;;28.85;49.33;99449.88;5046831;28;20033;-76
2023/07/09 01:31:14;;;;;;;5.53;3.70;;;;;;;28.85;49.50;99455.25;5046478;28;20036;-73
2023/07/09 01:33:41;;;;;;;6.03;3.28;;;;;;;28.84;49.23;99453.56;5048010;28;20028;-74
2023/07/09 01:36:08;;;;;;;5.32;3.42;;;;;;;28.84;49.52;99452.72;5048758;28;20098;-74
2023/07/09 01:38:34;;;;;;;6.55;3.63;;;;;;;28.83;49.34;99445.66;5048566;28;20480;-75
2023/07/09 01:41:01;;;;;;;5.93;3.60;;;;;;;28.82;49.60;99450.19;5052150;28;20025;-74
2023/07/09 01:43:29;;;;;;;5.63;3.65;;;;;;;28.84;49.22;99447.34;5049417;28;20473;-75
2023/07/09 01:45:57;;;;;;;7.20;3.95;;;;;;;28.76;49.37;99432.81;5049131;28;20043;-75
2023/07/09 01:48:24;;;;;;;6.25;3.92;;;;;;;28.75;49.50;99443.69;5050741;28;20445;-74
2023/07/09 01:50:51;;;;;;;5.65;3.50;;;;;;;28.73;49.32;99430.44;5052364;28;20433;-76
2023/07/09 01:53:23;;;;;;;5.05;3.40;;;;;;;28.72;49.52;99438.63;5049061;28;20039;-75
2023/07/09 01:55:51;;;;;;;6.65;3.47;;;;;;;28.68;49.44;99438.91;5048163;28;20468;-76
2023/07/09 01:58:18;;;;;;;6.47;3.95;;;;;;;28.68;49.62;99433.53;5047108;28;20056;-76
2023/07/09 02:00:44;;;;;;;4.68;3.15;;;;;;;28.68;49.47;99438.91;5044956;28;20043;-75
2023/07/09 02:03:10;;;;;;;5.88;3.65;;;;;;;28.70;49.48;99435.25;5047233;28;20029;-75
2023/07/09 02:05:36;;;;;;;5.43;3.63;;;;;;;28.70;49.73;99429.88;5048794;28;20045;-74
2023/07/09 02:08:03;;;;;;;5.40;3.33;;;;;;;28.68;49.30;99438.91;5045182;28;20091;-74
2023/07/09 02:10:29;;;;;;;5.95;3.22;;;;;;;28.70;49.71;99435.25;5044567;28;20470;-74
2023/07/09 02:12:54;;;;;;;5.32;3.53;;;;;;;28.67;49.37;99431.84;5048447;28;20028;-77
2023/07/09 02:15:20;;;;;;;6.82;3.75;;;;;;;28.68;49.75;99433.53;5051323;28;20029;-73
2023/07/09 02:17:45;;;;;;;5.80;3.65;;;;;;;28.70;49.26;99432.56;5049234;28;20021;-74
2023/07/09 02:20:12;;;;;;;5.53;3.50;;;;;;;28.68;49.55;99432.69;5050485;28;20020;-77
2023/07/09 02:22:39;;;;;;;5.47;3.45;;;;;;;28.67;49.57;99423.78;5051766;28;20595;-73
2023/07/09 02:25:08;;;;;;;5.75;3.65;;;;;;;28.65;49.93;99428.47;5051501;28;20032;-76
2023/07/09 02:27:36;;;;;;;4.60;3.30;;;;;;;28.65;49.50;99424.91;5051631;28;20516;-74
2023/07/09 02:30:02;;;;;;;4.78;2.90;;;;;;;28.65;49.33;99417.72;5056131;28;20025;-74
2023/07/09 02:32:28;;;;;;;6.13;3.90;;;;;;;28.65;49.87;99422.25;5051185;28;20063;-75
2023/07/09 02:34:54;;;;;;;5.35;3.72;;;;;;;28.65;49.59;99417.72;5051795;28;20052;-75
2023/07/09 02:37:22;;;;;;;5.85;4.00;;;;;;;28.64;49.42;99416.03;5051540;28;20070;-75
2023/07/09 02:39:47;;;;;;;6.22;3.75;;;;;;;28.64;49.39;99415.19;5045801;28;20028;-73
2023/07/09 02:42:15;;;;;;;6.10;3.75;;;;;;;28.62;49.63;99415.31;5044657;28;20025;-75
2023/07/09 02:44:42;;;;;;;5.32;3.53;;;;;;;28.63;49.57;99414.34;5045415;28;20043;-77
2023/07/09 02:47:08;;;;;;;6.53;3.80;;;;;;;28.62;49.31;99409.13;5046111;28;20108;-76
2023/07/09 02:49:34;;;;;;;5.50;3.38;;;;;;;28.61;49.85;99413.63;5046488;28;20093;-74
2023/07/09 02:52:00;;;;;;;5.40;3.65;;;;;;;28.62;49.60;99415.31;5046605;28;20017;-76
2023/07/09 02:54:25;;;;;;;5.50;3.35;;;;;;;28.61;49.77;99421.69;5048666;28;20032;-73
2023/07/09 02:56:51;;;;;;;5.25;3.65;;;;;;;28.61;49.66;99415.50;5046948;28;20028;-77
2023/07/09 02:59:17;;;;;;;4.80;3.47;;;;;;;28.62;49.44;99412.63;5049160;28;20041;-74
2023/07/09 03:01:43;;;;;;;5.28;3.70;;;;;;;28.61;49.45;99416.31;5047018;28;20074;-73
2023/07/09 03:04:08;;;;;;;5.35;3.22;;;;;;;28.59;49.58;99410.25;5046204;28;20037;-75
2023/07/09 03:06:35;;;;;;;5.82;3.78;;;;;;;28.58;49.41;99411.25;5046204;28;20035;-74
2023/07/09 03:09:02;;;;;;;6.10;3.55;;;;;;;28.59;49.89;99412.09;5044983;28;20021;-76
2023/07/09 03:11:30;;;;;;;5.28;3.28;;;;;;;28.57;49.63;99409.53;5047344;28;20024;-74
2023/07/09 03:13:57;;;;;;;5.85;3.97;;;;;;;28.57;49.41;99404.16;5046536;28;20078;-74
2023/07/09 03:16:22;;;;;;;7.07;4.05;;;;;;;28.56;49.69;99407.84;5046314;28;20025;-74
2023/07/09 03:18:48;;;;;;;6.82;3.95;;;;;;;28.58;49.60;99427.34;5047296;28;20032;-73
2023/07/09 03:21:14;;;;;;;6.20;3.88;;;;;;;28.59;49.60;99441.59;5047969;28;20020;-76
2023/07/09 03:23:39;;;;;;;5.47;3.35;;;;;;;28.58;49.62;99442.59;5047577;28;20028;-75
2023/07/09 03:26:05;;;;;;;5.85;3.92;;;;;;;28.59;49.47;99455.88;5044633;28;20079;-77
2023/07/09 03:28:31;;;;;;;7.40;4.18;;;;;;;28.58;49.55;99454.19;5048081;28;20025;-76
2023/07/09 03:30:57;;;;;;;6.55;3.83;;;;;;;28.58;49.56;99454.19;5053725;28;20109;-75
2023/07/09 03:33:23;;;;;;;6.35;3.80;;;;;;;28.57;49.66;99463.22;5051872;28;20096;-73
2023/07/09 03:35:49;;;;;;;6.88;3.85;;;;;;;28.58;49.83;99473.00;5054617;28;20050;-74
2023/07/09 03:38:15;;;;;;;6.18;4.22;;;;;;;28.55;49.46;99475.94;5055439;28;20025;-73
2023/07/09 03:40:40;;;;;;;6.10;4.07;;;;;;;28.56;49.62;99476.81;5055411;28;20618;-73
2023/07/09 03:43:07;;;;;;;4.85;3.42;;;;;;;28.54;49.77;99468.88;5053634;28;20025;-75
2023/07/09 03:45:36;;;;;;;6.72;4.55;;;;;;;28.54;49.62;99471.56;5053948;28;20035;-74
2023/07/09 03:48:03;;;;;;;6.50;3.70;;;;;;;28.53;49.43;99470.72;5055319;28;20025;-75
2023/07/09 03:50:28;;;;;;;5.97;3.65;;;;;;;28.55;49.46;99470.56;5055222;28;20029;-77
2023/07/09 03:52:54;;;;;;;6.20;3.85;;;;;;;28.55;49.44;99470.56;5054992;28;20029;-74
2023/07/09 03:55:20;;;;;;;7.60;4.15;;;;;;;28.54;49.52;99458.16;5055233;28;20021;-74
2023/07/09 03:57:45;;;;;;;6.50;4.10;;;;;;;28.55;49.52;99467.91;5054744;28;20511;-74
2023/07/09 04:00:11;;;;;;;7.15;4.65;;;;;;;28.57;49.51;99467.75;5070265;28;20124;-76
2023/07/09 04:02:40;;;;;;;7.50;3.85;;;;;;;28.53;49.83;99464.53;5055214;28;20025;-75
2023/07/09 04:05:09;;;;;;;6.72;4.05;;;;;;;28.54;49.64;99460.84;5053490;28;20036;-76
2023/07/09 04:07:35;;;;;;;6.47;4.25;;;;;;;28.51;49.42;99461.09;5054815;28;20025;-75
2023/07/09 04:10:01;;;;;;;7.18;3.90;;;;;;;28.53;49.57;99467.19;5055262;28;20390;-74
2023/07/09 04:12:27;;;;;;;6.80;4.07;;;;;;;28.51;49.83;99464.66;5053266;28;20048;-74
2023/07/09 04:14:52;;;;;;;6.15;4.00;;;;;;;28.51;49.30;99463.78;5054576;28;20025;-74
2023/07/09 04:17:18;;;;;;;9.20;4.32;;;;;;;28.51;49.52;99463.78;5054914;28;20029;-74
2023/07/09 04:19:43;;;;;;;6.65;4.10;;;;;;;28.49;49.68;99457.72;5054833;28;20033;-74
2023/07/09 04:22:11;;;;;;;6.25;4.13;;;;;;;28.48;49.68;99458.72;5054514;28;20448;-76
2023/07/09 04:24:36;;;;;;;7.60;4.22;;;;;;;28.48;49.89;99459.56;5054610;28;20083;-75
2023/07/09 04:27:02;;;;;;;6.35;4.25;;;;;;;28.46;49.61;99466.09;5054225;28;20028;-74
2023/07/09 04:29:35;;;;;;;6.90;4.78;;;;;;;28.46;49.51;99466.09;5054675;28;20039;-76
2023/07/09 04:32:02;;;;;;;7.38;4.47;;;;;;;28.47;49.63;99468.59;5054486;28;20054;-75
2023/07/09 04:34:28;;;;;;;7.85;4.32;;;;;;;28.45;49.97;99475.09;5054481;28;20075;-73
2023/07/09 04:36:53;;;;;;;7.32;4.70;;;;;;;28.47;49.81;99473.16;5054283;28;20473;-76
2023/07/09 04:39:19;;;;;;;7.57;4.53;;;;;;;28.47;49.53;99473.16;5053616;28;20083;-74
2023/07/09 04:41:44;;;;;;;6.15;4.20;;;;;;;28.46;49.84;99482.19;5053515;28;20507;-76
2023/07/09 04:44:09;;;;;;;6.28;3.70;;;;;;;28.46;50.02;99487.56;5054138;28;20485;-74
2023/07/09 04:46:35;;;;;;;7.05;4.20;;;;;;;28.45;49.56;99489.38;5054345;28;20025;-74
2023/07/09 04:49:00;;;;;;;8.00;4.30;;;;;;;28.46;49.58;99492.94;5053880;28;20027;-76
2023/07/09 04:51:27;;;;;;;6.80;4.50;;;;;;;28.47;49.71;99489.25;5054040;28;20025;-74
2023/07/09 04:53:52;;;;;;;5.80;3.55;;;;;;;28.45;49.96;99484.00;5054162;28;20086;-75
2023/07/09 04:56:18;;;;;;;7.05;4.43;;;;;;;28.47;49.87;99491.94;5053570;28;20013;-75
2023/07/09 04:58:44;;;;;;;6.55;4.38;;;;;;;28.46;49.97;99492.94;5053849;28;20513;-76
2023/07/09 05:01:10;;;;;;;6.30;3.80;;;;;;;28.45;49.91;99496.56;5053662;28;20025;-76
2023/07/09 05:03:36;;;;;;;7.22;3.83;;;;;;;28.45;49.84;99494.75;5053641;28;20535;-74
2023/07/09 05:06:04;;;;;;;6.15;4.15;;;;;;;28.47;49.65;99497.28;5053734;28;20111;-76
2023/07/09 05:08:30;;;;;;;7.80;4.40;;;;;;;28.48;50.02;99507.03;5053812;28;20115;-73
2023/07/09 05:10:56;;;;;;;6.82;4.07;;;;;;;28.46;49.75;99503.66;5053075;28;20117;-74
2023/07/09 05:13:22;;;;;;;6.75;4.30;;;;;;;28.46;49.81;99500.97;5053834;28;20108;-74
2023/07/09 05:15:48;;;;;;;6.05;4.13;;;;;;;28.46;49.99;99498.28;5053593;28;20130;-74
2023/07/09 05:18:15;;;;;;;5.85;3.63;;;;;;;28.44;49.67;99506.47;5053628;28;20063;-76
2023/07/09 05:20:41;;;;;;;6.82;4.15;;;;;;;28.45;49.62;99518.03;5053474;28;20024;-75
2023/07/09 05:23:08;;;;;;;6.30;4.03;;;;;;;28.45;49.99;99512.66;5053390;28;20525;-74
2023/07/09 05:25:34;;;;;;;5.93;3.90;;;;;;;28.46;50.03;99514.41;5051596;28;20443;-75
2023/07/09 05:27:59;;;;;;;7.97;4.22;;;;;;;28.46;50.18;99519.75;5053354;28;20087;-74
2023/07/09 05:30:26;;;;;;;7.53;4.00;;;;;;;28.44;49.97;99516.34;5053245;28;20075;-74
2023/07/09 05:32:53;;;;;;;6.78;4.30;;;;;;;28.43;49.99;99520.03;5053194;28;20029;-74
2023/07/09 05:35:19;;;;;;;7.20;4.55;;;;;;;28.43;49.98;99522.72;5053447;28;20027;-74
2023/07/09 05:37:44;;;;;;;7.78;4.35;;;;;;;28.44;49.74;99521.72;5053223;28;20111;-74
2023/07/09 05:40:10;;;;;;;6.20;4.15;;;;;;;28.43;49.81;99525.41;5052807;28;20036;-75
2023/07/09 05:42:35;;;;;;;5.93;3.97;;;;;;;28.44;50.16;99527.09;5053176;28;20025;-75
2023/07/09 05:45:01;;;;;;;8.05;4.15;;;;;;;28.43;50.16;99530.75;5053144;28;20036;-74
2023/07/09 05:47:26;;;;;;;7.90;4.75;;;;;;;28.44;49.83;99536.00;5053322;28;20116;-75
2023/07/09 05:49:53;;;;;;;6.57;4.25;;;;;;;28.45;49.67;99539.50;5052643;28;20029;-76
2023/07/09 05:52:20;;;;;;;5.75;3.92;;;;;;;28.45;49.87;99542.19;5052333;28;20033;-75
2023/07/09 05:54:48;;;;;;;7.32;4.68;;;;;;;28.44;50.16;99551.25;5052644;28;20066;-76
2023/07/09 05:57:13;;;;;;;8.30;4.50;;;;;;;28.45;49.91;99556.47;5052690;28;20082;-75
2023/07/09 05:59:39;;;;;;;6.57;3.92;;;;;;;28.45;49.88;99552.94;5052551;28;20033;-76
2023/07/09 06:02:10;;;;;;;6.35;4.05;;;;;;;28.45;50.19;99558.28;5052528;28;20095;-75
2023/07/09 06:04:35;;;;;;;9.13;4.43;;;;;;;28.45;50.09;99556.47;5052814;28;20036;-75
2023/07/09 06:07:01;;;;;;;6.30;4.18;;;;;;;28.45;49.89;99552.94;5052578;28;20018;-74
2023/07/09 06:09:27;;;;;;;6.65;4.20;;;;;;;28.45;50.09;99555.63;5051703;28;20116;-76
2023/07/09 06:11:52;;;;;;;7.50;4.07;;;;;;;28.44;49.92;99556.59;5056676;28;20031;-74
2023/07/09 06:14:18;;;;;;;7.93;4.40;;;;;;;28.45;49.97;99550.25;5070013;28;20024;-76
2023/07/09 06:16:43;;;;;;;8.52;3.88;;;;;;;28.45;50.18;99561.84;5052737;28;20048;-74
2023/07/09 06:19:09;;;;;;;7.53;4.28;;;;;;;28.46;50.25;99562.69;5058950;28;20074;-75
2023/07/09 06:21:34;;;;;;;5.63;3.92;;;;;;;28.46;50.23;99570.75;5061849;28;20035;-76
2023/07/09 06:24:00;;;;;;;6.70;3.90;;;;;;;28.47;50.11;99569.75;5052140;28;20021;-74
2023/07/09 06:26:25;;;;;;;6.93;4.15;;;;;;;28.46;50.28;99573.44;5052392;28;20033;-76
2023/07/09 06:28:51;;;;;;;7.20;4.65;;;;;;;28.47;50.15;99575.13;5069002;28;20024;-74
2023/07/09 06:31:16;;;;;;;6.07;4.20;;;;;;;28.46;50.00;99586.84;5072285;28;20506;-75
2023/07/09 06:33:41;;;;;;;6.82;4.10;;;;;;;28.46;50.00;99584.16;5072285;28;20040;-75
2023/07/09 06:36:08;;;;;;;6.88;4.20;;;;;;;28.49;50.20;99586.56;5072298;28;20060;-76
2023/07/09 06:38:33;;;;;;;6.20;4.05;;;;;;;28.48;50.13;99587.56;5071935;28;20032;-76
2023/07/09 06:40:59;;;;;;;6.43;4.28;;;;;;;28.51;49.93;99587.25;5070637;28;20017;-74
2023/07/09 06:43:24;;;;;;;6.70;4.03;;;;;;;28.50;49.96;99596.31;5070842;28;20508;-74
2023/07/09 06:45:58;;;;;;;6.10;4.03;;;;;;;28.51;50.11;99598.00;5055659;28;20135;-74
2023/07/09 06:48:25;;;;;;;6.90;4.53;;;;;;;28.52;50.07;99600.53;5052041;28;20478;-77
2023/07/09 06:50:53;;;;;;;7.18;4.30;;;;;;;28.56;50.09;99605.66;5050714;28;20727;-74
2023/07/09 06:53:20;;;;;;;6.18;3.90;;;;;;;28.54;50.26;99603.09;5051735;28;20025;-74
2023/07/09 06:55:45;;;;;;;7.30;4.43;;;;;;;28.51;49.93;99604.22;5051907;28;20516;-74
2023/07/09 06:58:11;;;;;;;6.53;4.25;;;;;;;28.54;50.40;99603.09;5051748;28;20045;-74
2023/07/09 07:00:37;;;;;;;6.38;3.88;;;;;;;28.55;50.25;99599.41;5051924;28;20463;-75
2023/07/09 07:03:04;;;;;;;7.38;4.75;;;;;;;28.55;49.95;99610.16;5066500;28;20025;-75
2023/07/09 07:05:29;;;;;;;6.15;4.22;;;;;;;28.56;50.33;99602.97;5051587;28;20029;-76
2023/07/09 07:07:54;;;;;;;5.82;3.92;;;;;;;28.55;49.99;99612.84;5051424;28;20036;-76
2023/07/09 07:10:20;;;;;;;5.45;3.92;;;;;;;28.57;50.18;99612.69;5051704;28;20021;-76
2023/07/09 07:12:47;;;;;;;6.68;4.20;;;;;;;28.58;50.04;99615.25;5050528;28;20500;-75
2023/07/09 07:15:16;;;;;;;6.55;4.22;;;;;;;28.59;50.09;99634.88;5051743;28;20036;-75
2023/07/09 07:17:42;;;;;;;5.72;3.63;;;;;;;28.60;50.21;99642.78;5050316;28;20465;-74
2023/07/09 07:20:09;;;;;;;7.43;4.43;;;;;;;28.60;50.19;99634.75;5051776;28;20155;-74
2023/07/09 07:22:34;;;;;;;7.63;4.30;;;;;;;28.57;50.23;99621.59;5051358;28;20087;-74
2023/07/09 07:25:00;;;;;;;6.57;4.10;;;;;;;28.59;50.32;99630.38;5051676;28;20033;-74
2023/07/09 07:27:25;;;;;;;6.15;4.13;;;;;;;28.57;50.23;99635.00;5051765;28;20526;-74
2023/07/09 07:29:51;;;;;;;7.10;4.75;;;;;;;28.58;50.10;99636.72;5051429;28;20493;-75
2023/07/09 07:32:16;;;;;;;5.68;4.03;;;;;;;28.58;50.11;99642.09;5051799;28;20044;-75
2023/07/09 07:34:41;;;;;;;6.50;4.45;;;;;;;28.58;50.07;99644.78;5051515;28;20474;-73
2023/07/09 07:37:07;;;;;;;7.32;4.53;;;;;;;28.58;50.17;99652.84;5051219;28;20029;-73
2023/07/09 07:39:32;;;;;;;6.82;4.88;;;;;;;28.59;50.07;99653.66;5050315;28;20110;-74
2023/07/09 07:41:58;;;;;;;6.10;4.57;;;;;;;28.58;50.51;99650.16;5051480;28;20021;-74
2023/07/09 07:44:23;;;;;;;6.32;4.47;;;;;;;28.59;50.29;99659.91;5055060;28;20092;-76
2023/07/09 07:46:49;;;;;;;6.30;4.35;;;;;;;28.60;50.39;99661.59;5066222;28;20480;-76
2023/07/09 07:49:14;;;;;;;7.28;4.32;;;;;;;28.61;50.37;99657.09;5053960;28;20037;-76
2023/07/09 07:51:40;;;;;;;7.28;4.90;;;;;;;28.61;50.33;99663.28;5050966;28;20381;-75
2023/07/09 07:54:06;;;;;;;6.75;4.35;;;;;;;28.63;50.09;99671.19;5051067;28;20552;-76
2023/07/09 07:56:32;;;;;;;7.55;4.90;;;;;;;28.64;50.12;99679.13;5051190;28;20029;-77
2023/07/09 07:58:57;;;;;;;8.82;5.45;;;;;;;28.64;50.43;99679.13;5050981;28;20045;-76
2023/07/09 08:01:23;;;;;;;7.35;5.15;;;;;;;28.65;50.28;99679.94;5051079;28;20120;-75
2023/07/09 08:03:48;;;;;;;8.50;5.50;;;;;;;28.65;50.48;99682.63;5049695;28;20037;-76
2023/07/09 08:06:13;;;;;;;7.00;4.90;;;;;;;28.64;50.59;99684.50;5051102;28;20033;-76
2023/07/09 08:08:39;;;;;;;7.72;5.30;;;;;;;28.65;50.22;99691.56;5051242;28;20024;-74
2023/07/09 08:11:07;;;;;;;7.22;5.82;;;;;;;28.67;50.33;99696.78;5049592;28;20061;-76
2023/07/09 08:13:37;;;;;;;7.38;5.30;;;;;;;28.67;50.34;99694.94;5051453;28;20111;-75
2023/07/09 08:16:04;;;;;;;7.65;5.47;;;;;;;28.67;50.43;99705.69;5055035;28;20085;-73
2023/07/09 08:18:29;;;;;;;6.88;5.43;;;;;;;28.70;50.59;99711.78;5062648;28;20028;-74
2023/07/09 08:20:55;;;;;;;7.57;4.95;;;;;;;28.71;50.49;99716.16;5054430;28;20033;-76
2023/07/09 08:23:20;;;;;;;7.32;5.57;;;;;;;28.70;50.16;99714.47;5054645;28;20029;-75
2023/07/09 08:25:53;;;;;;;7.60;5.72;;;;;;;28.72;50.64;99723.22;5054553;28;20029;-75
2023/07/09 08:28:18;;;;;;;7.55;5.47;;;;;;;28.73;50.19;99714.16;5054666;28;20017;-74
2023/07/09 08:30:44;;;;;;;8.43;5.78;;;;;;;28.75;50.18;99717.56;5054350;28;20040;-75
2023/07/09 08:33:10;;;;;;;9.18;6.43;;;;;;;28.75;50.31;99717.56;5052837;28;20021;-74
2023/07/09 08:35:35;;;;;;;7.85;6.07;;;;;;;28.75;50.25;99701.44;5054167;28;20481;-77
2023/07/09 08:38:00;;;;;;;9.10;6.03;;;;;;;28.76;50.26;99703.16;5052983;28;20059;-74
2023/07/09 08:40:26;;;;;;;6.45;5.45;;;;;;;28.78;50.46;99711.91;5054206;28;20029;-74
2023/07/09 08:43:11;;;;;;;8.32;6.25;;;;;;;28.80;50.44;99712.63;5054133;28;20491;-76
2023/07/09 08:45:49;;;;;;;7.82;5.93;;;;;;;28.80;50.52;99710.78;5053051;28;20040;-75
2023/07/09 08:48:31;;;;;;;7.32;6.25;;;;;;;28.80;50.25;99716.16;5053737;28;20036;-76
2023/07/09 08:51:08;;;;;;;8.82;6.07;;;;;;;28.81;50.17;99717.03;5053989;28;20032;-76
2023/07/09 08:53:39;;;;;;;8.88;6.82;;;;;;;28.81;50.32;99720.53;5073852;28;20032;-77
2023/07/09 08:56:09;;;;;;;8.10;6.35;;;;;;;28.84;50.67;99716.72;5071577;28;20060;-78
2023/07/09 08:58:37;;;;;;;8.55;6.25;;;;;;;28.86;50.18;99720.16;5053687;28;20063;-76
2023/07/09 09:01:06;;;;;;;7.55;6.05;;;;;;;28.86;50.53;99714.78;5053726;28;20473;-73
2023/07/09 09:03:39;;;;;;;7.80;6.20;;;;;;;28.89;50.20;99716.34;5053542;28;20013;-76
2023/07/09 09:06:14;;;;;;;8.38;6.10;;;;;;;28.90;50.54;99720.75;5053870;28;20025;-76
2023/07/09 09:09:15;;;;;;;7.97;6.82;;;;;;;28.91;50.67;99723.25;5053510;28;20044;-75
2023/07/09 09:11:48;;;;;;;9.02;6.47;;;;;;;28.94;50.34;99719.44;5052393;28;20066;-74
2023/07/09 09:14:37;;;;;;;9.77;7.28;;;;;;;28.93;50.38;99726.69;5053732;28;20048;-78
2023/07/09 09:17:12;;;;;;;10.18;6.97;;;;;;;28.92;50.81;99724.97;5050312;28;20048;-75
2023/07/09 09:19:46;;;;;;;8.93;7.25;;;;;;;28.91;50.84;99725.94;5051521;28;20021;-77
2023/07/09 09:22:15;;;;;;;10.40;8.02;;;;;;;28.92;50.85;99724.97;5048036;28;20032;-81
2023/07/09 09:24:53;;;;;;;11.73;8.65;;;;;;;28.94;50.42;99732.88;5044962;28;20378;-75
2023/07/09 09:27:18;;;;;;;10.93;9.32;;;;;;;28.94;50.88;99731.06;5033290;28;20512;-75
2023/07/09 09:29:44;;;;;;;11.38;9.75;;;;;;;28.96;50.58;99730.94;5037999;28;20017;-75
2023/07/09 09:32:24;;;;;;;11.15;9.95;;;;;;;28.97;50.56;99731.75;5053004;28;20043;-76
2023/07/09 09:34:50;;;;;;;12.13;9.75;;;;;;;28.96;51.26;99732.75;5053098;28;20092;-75
2023/07/09 09:37:28;;;;;;;13.23;10.13;;;;;;;28.97;50.73;99738.00;5052199;28;20115;-73
2023/07/09 09:39:53;;;;;;;10.98;9.88;;;;;;;28.96;51.16;99732.75;5053283;28;20136;-75
2023/07/09 09:42:19;;;;;;;11.57;10.38;;;;;;;28.97;51.11;99739.81;5053430;28;20055;-74
2023/07/09 09:44:45;;;;;;;12.60;10.98;;;;;;;28.97;51.51;99743.38;5053020;28;20552;-76
2023/07/09 09:47:12;;;;;;;15.15;11.23;;;;;;;28.98;51.49;99744.19;5052668;28;20469;-76
2023/07/09 09:49:41;;;;;;;13.32;11.45;;;;;;;28.99;51.43;99751.28;5053114;28;20060;-77
2023/07/09 09:52:13;;;;;;;12.27;10.20;;;;;;;28.99;51.43;99745.91;5052808;28;20036;-74
2023/07/09 09:54:41;;;;;;;11.07;9.93;;;;;;;28.99;51.56;99756.66;5052912;28;20505;-74
2023/07/09 09:57:23;;;;;;;13.07;11.73;;;;;;;28.99;51.79;99757.50;5052766;28;20032;-74
2023/07/09 09:59:49;;;;;;;12.70;11.05;;;;;;;29.02;51.63;99767.97;5052389;28;20071;-76
2023/07/09 10:02:18;;;;;;;13.35;10.88;;;;;;;29.03;51.41;99763.44;5052885;28;20028;-75
2023/07/09 10:04:44;;;;;;;12.77;11.05;;;;;;;29.01;51.72;99777.00;5052922;28;20032;-75
2023/07/09 10:07:34;;;;;;;12.85;11.45;;;;;;;29.02;51.78;99777.84;5052607;28;20017;-75
2023/07/09 10:10:00;;;;;;;11.90;10.55;;;;;;;29.04;51.78;99783.94;5052709;28;20067;-76
2023/07/09 10:12:53;;;;;;;12.25;10.88;;;;;;;29.05;51.57;99791.03;5052739;28;20477;-74
2023/07/09 10:15:24;;;;;;;11.75;10.50;;;;;;;29.04;52.09;99784.78;5051219;28;20033;-75
2023/07/09 10:18:00;;;;;;;11.85;10.65;;;;;;;29.05;51.95;99785.66;5052543;28;20465;-76
2023/07/09 10:20:33;;;;;;;13.18;11.70;;;;;;;29.05;52.03;99778.41;5052413;28;20473;-76
2023/07/09 10:23:44;;;;;;;12.68;11.35;;;;;;;29.06;52.32;99785.47;5051149;28;20458;-75
2023/07/09 10:26:25;;;;;;;13.45;11.27;;;;;;;29.07;52.00;99789.91;5030079;28;20057;-75
2023/07/09 10:29:29;;;;;;;11.35;10.18;;;;;;;29.07;52.02;99780.97;5029715;28;20033;-74
2023/07/09 10:32:05;;;;;;;12.93;11.05;;;;;;;29.07;52.17;99791.72;4993906;28;20030;-74
2023/07/09 10:34:30;;;;;;;13.25;11.20;;;;;;;29.07;52.17;99786.34;5007807;28;20037;-76
2023/07/09 10:37:30;;;;;;;12.65;10.95;;;;;;;29.08;52.13;99793.41;5027599;28;20152;-76
2023/07/09 10:39:58;;;;;;;13.30;11.45;;;;;;;29.07;52.16;99783.66;5024937;28;20044;-75
2023/07/09 10:42:32;;;;;;;12.45;11.05;;;;;;;29.08;52.25;99788.03;5032790;28;20445;-74
2023/07/09 10:45:04;;;;;;;11.90;10.63;;;;;;;29.08;52.13;99783.53;5026517;28;20041;-75
2023/07/09 10:47:56;;;;;;;12.27;10.57;;;;;;;29.11;51.83;99787.78;5025342;28;20049;-76
2023/07/09 10:50:35;;;;;;;12.18;10.90;;;;;;;29.12;51.75;99789.47;5028836;28;20058;-74
2023/07/09 10:53:24;;;;;;;12.05;10.75;;;;;;;29.11;52.06;99793.16;5028966;28;20045;-73
2023/07/09 10:56:20;;;;;;;13.02;10.93;;;;;;;29.13;52.17;99785.78;5020675;28;20440;-79
2023/07/09 10:59:31;;;;;;;13.07;11.45;;;;;;;29.14;51.75;99792.84;5025690;28;20053;-79
2023/07/09 11:02:26;;;;;;;16.10;12.52;;;;;;;29.16;51.72;99790.03;5042312;28;20073;-77
2023/07/09 11:04:54;;;;;;;12.93;11.52;;;;;;;29.14;52.20;99782.09;5045264;28;20029;-76
2023/07/09 11:07:30;;;;;;;13.07;11.43;;;;;;;29.17;51.50;99789.91;5041999;28;20021;-79
2023/07/09 11:09:58;;;;;;;13.27;11.65;;;;;;;29.20;51.63;99794.97;5045656;28;20079;-75
2023/07/09 11:12:38;;;;;;;12.65;11.05;;;;;;;29.20;51.69;99791.47;5050235;28;20514;-77
2023/07/09 11:15:17;;;;;;;13.27;11.80;;;;;;;29.21;51.43;99780.56;5046110;28;20094;-79
2023/07/09 11:17:46;;;;;;;16.02;12.25;;;;;;;29.24;51.58;99775.91;5048842;28;20025;-78
2023/07/09 11:20:25;;;;;;;13.48;11.93;;;;;;;29.24;51.80;99784.78;5039060;28;20546;-75
2023/07/09 11:23:02;;;;;;;13.10;11.63;;;;;;;29.25;51.84;99781.16;5049346;28;20040;-80
2023/07/09 11:25:39;;;;;;;13.60;12.20;;;;;;;29.26;51.86;99785.53;5045234;28;20569;-79
2023/07/09 11:28:06;;;;;;;13.77;12.35;;;;;;;29.28;51.47;99782.69;5045547;28;20048;-76
2023/07/09 11:30:33;;;;;;;13.82;12.00;;;;;;;29.28;51.92;99777.31;5042883;28;20048;-74
2023/07/09 11:33:04;;;;;;;13.90;12.00;;;;;;;29.29;51.73;99779.84;5049655;28;20029;-76
2023/07/09 11:36:11;;;;;;;13.45;12.05;;;;;;;29.31;51.81;99774.34;5039222;28;20078;-76
2023/07/09 11:38:52;;;;;;;13.95;12.43;;;;;;;29.32;51.79;99778.72;5048976;28;20120;-85
2023/07/09 11:41:45;;;;;;;13.30;12.00;;;;;;;29.33;51.91;99775.03;5051243;28;20021;-75